This is the latest recevied weather packets stored in our database for station/object HASTNG-WX. If no packets are shown the sender has not sent any weather packets the latest 10 day(s).
| Time | Temp. | Humidity | Pressure | Rain* | Wind** | Luminosity | Snow |
|---|---|---|---|---|---|---|---|
| 1777660245 | 7.22° C | 60% | 986.2 hPa | 0 mm | - | - | - |
| 1777659329 | 6.67° C | 60% | 986.1 hPa | 0 mm | - | - | - |
| 1777658457 | 6.67° C | 60% | 986.1 hPa | 0 mm | - | - | - |
| 1777657529 | 6.67° C | 60% | 987.1 hPa | 0 mm | - | - | - |
| 1777656645 | 6.67° C | 55% | 986.4 hPa | 0 mm | - | - | - |
| 1777655729 | 7.22° C | 55% | 986.5 hPa | 0 mm | - | - | - |
| 1777654855 | 7.22° C | 55% | 986.5 hPa | 0 mm | - | - | - |
| 1777653929 | 7.78° C | 59% | 985.2 hPa | 0 mm | - | - | - |
| 1777653048 | 7.22° C | 58% | 985.5 hPa | 0 mm | - | - | - |
| 1777652129 | 7.22° C | 58% | 985.4 hPa | 0 mm | - | - | - |
| 1777651261 | 6.67° C | 58% | 985.4 hPa | 0 mm | - | - | - |
| 1777650329 | 6.67° C | 60% | 985.5 hPa | 0 mm | - | - | - |
| 1777649445 | 6.67° C | 53% | 986 hPa | 0 mm | - | - | - |
| 1777648529 | 6.67° C | 53% | 986 hPa | 0 mm | - | - | - |
| 1777647658 | 6.67° C | 53% | 986 hPa | 0 mm | - | - | - |
| 1777646729 | 6.67° C | 61% | 985.2 hPa | 0 mm | - | - | - |
| 1777645848 | 6.67° C | 58% | 985.9 hPa | 0 mm | - | - | - |
| 1777644930 | 6.11° C | 58% | 985.9 hPa | 0 mm | - | - | - |
| 1777644063 | 6.11° C | 58% | 985.9 hPa | 0 mm | - | - | - |
| 1777643129 | 5.56° C | 63% | 985.2 hPa | 0 mm | - | - | - |
| 1777642246 | 5.56° C | 63% | 985.2 hPa | 0 mm | - | - | - |
| 1777641329 | 5° C | 63% | 985.2 hPa | 0 mm | - | - | - |
| 1777640456 | 4.44° C | 63% | 985.2 hPa | 0 mm | - | - | - |
| 1777639529 | 4.44° C | 71% | 984.9 hPa | 0 mm | - | - | - |
| 1777638647 | 4.44° C | 69% | 984.8 hPa | 0 mm | - | - | - |
* Rain latest hour (hover to see other rain measurements)
** Current wind speed in m/s (hover to see current wind gust speed)